sensor_id;sensor_type;location;lat;lon;timestamp;P1;durP1;ratioP1;P2;durP2;ratioP2
12956;SDS011;6543;48.836;10.092;2023-05-10T00:00:23;0.60;;;0.60;;
12956;SDS011;6543;48.836;10.092;2023-05-10T00:02:50;1.13;;;0.63;;
12956;SDS011;6543;48.836;10.092;2023-05-10T00:05:17;0.47;;;0.47;;
12956;SDS011;6543;48.836;10.092;2023-05-10T00:07:46;0.60;;;0.50;;
12956;SDS011;6543;48.836;10.092;2023-05-10T00:10:13;0.67;;;0.67;;
12956;SDS011;6543;48.836;10.092;2023-05-10T00:12:40;0.70;;;0.70;;
12956;SDS011;6543;48.836;10.092;2023-05-10T00:15:07;0.73;;;0.73;;
12956;SDS011;6543;48.836;10.092;2023-05-10T00:17:35;0.80;;;0.63;;
12956;SDS011;6543;48.836;10.092;2023-05-10T00:20:02;0.60;;;0.60;;
12956;SDS011;6543;48.836;10.092;2023-05-10T00:22:30;0.77;;;0.77;;
12956;SDS011;6543;48.836;10.092;2023-05-10T00:24:58;1.13;;;0.70;;
12956;SDS011;6543;48.836;10.092;2023-05-10T00:27:25;0.50;;;0.50;;
12956;SDS011;6543;48.836;10.092;2023-05-10T00:29:52;0.53;;;0.53;;
12956;SDS011;6543;48.836;10.092;2023-05-10T00:32:19;0.70;;;0.70;;
12956;SDS011;6543;48.836;10.092;2023-05-10T00:34:46;2.20;;;0.70;;
12956;SDS011;6543;48.836;10.092;2023-05-10T00:37:13;0.80;;;0.80;;
12956;SDS011;6543;48.836;10.092;2023-05-10T00:39:39;1.63;;;0.50;;
12956;SDS011;6543;48.836;10.092;2023-05-10T00:42:08;1.67;;;0.60;;
12956;SDS011;6543;48.836;10.092;2023-05-10T00:44:35;0.70;;;0.70;;
12956;SDS011;6543;48.836;10.092;2023-05-10T00:47:01;0.47;;;0.47;;
12956;SDS011;6543;48.836;10.092;2023-05-10T00:49:29;0.63;;;0.50;;
12956;SDS011;6543;48.836;10.092;2023-05-10T00:51:56;2.30;;;0.53;;
12956;SDS011;6543;48.836;10.092;2023-05-10T00:54:23;1.00;;;0.57;;
12956;SDS011;6543;48.836;10.092;2023-05-10T00:56:50;0.60;;;0.60;;
12956;SDS011;6543;48.836;10.092;2023-05-10T00:59:19;0.53;;;0.53;;
12956;SDS011;6543;48.836;10.092;2023-05-10T01:01:46;0.40;;;0.40;;
12956;SDS011;6543;48.836;10.092;2023-05-10T01:04:14;0.80;;;0.80;;
12956;SDS011;6543;48.836;10.092;2023-05-10T01:06:41;1.47;;;1.00;;
12956;SDS011;6543;48.836;10.092;2023-05-10T01:09:09;1.10;;;1.03;;
12956;SDS011;6543;48.836;10.092;2023-05-10T01:11:37;1.57;;;1.20;;
12956;SDS011;6543;48.836;10.092;2023-05-10T01:14:05;2.13;;;1.37;;
12956;SDS011;6543;48.836;10.092;2023-05-10T01:16:34;1.77;;;1.67;;
12956;SDS011;6543;48.836;10.092;2023-05-10T01:19:04;1.67;;;1.43;;
12956;SDS011;6543;48.836;10.092;2023-05-10T01:21:33;1.27;;;1.03;;
12956;SDS011;6543;48.836;10.092;2023-05-10T01:30:33;0.80;;;0.80;;
12956;SDS011;6543;48.836;10.092;2023-05-10T01:33:15;0.47;;;0.40;;
12956;SDS011;6543;48.836;10.092;2023-05-10T01:35:47;2.00;;;0.63;;
12956;SDS011;6543;48.836;10.092;2023-05-10T01:38:19;0.60;;;0.40;;
12956;SDS011;6543;48.836;10.092;2023-05-10T01:40:57;1.27;;;0.50;;
12956;SDS011;6543;48.836;10.092;2023-05-10T01:43:36;0.30;;;0.30;;
12956;SDS011;6543;48.836;10.092;2023-05-10T01:46:25;0.53;;;0.20;;
12956;SDS011;6543;48.836;10.092;2023-05-10T01:48:57;0.20;;;0.10;;
12956;SDS011;6543;48.836;10.092;2023-05-10T01:51:27;0.53;;;0.10;;
12956;SDS011;6543;48.836;10.092;2023-05-10T01:53:59;0.10;;;0.10;;
12956;SDS011;6543;48.836;10.092;2023-05-10T01:56:29;0.00;;;0.00;;
12956;SDS011;6543;48.836;10.092;2023-05-10T01:58:58;0.10;;;0.03;;
12956;SDS011;6543;48.836;10.092;2023-05-10T02:01:27;1.10;;;0.20;;
12956;SDS011;6543;48.836;10.092;2023-05-10T02:03:54;0.53;;;0.10;;
12956;SDS011;6543;48.836;10.092;2023-05-10T02:06:24;0.20;;;0.13;;
12956;SDS011;6543;48.836;10.092;2023-05-10T02:08:53;0.10;;;0.10;;
12956;SDS011;6543;48.836;10.092;2023-05-10T02:11:21;0.10;;;0.10;;
12956;SDS011;6543;48.836;10.092;2023-05-10T02:13:49;1.00;;;0.30;;
12956;SDS011;6543;48.836;10.092;2023-05-10T02:16:17;0.10;;;0.10;;
12956;SDS011;6543;48.836;10.092;2023-05-10T02:18:49;0.10;;;0.10;;
12956;SDS011;6543;48.836;10.092;2023-05-10T02:21:19;0.10;;;0.10;;
12956;SDS011;6543;48.836;10.092;2023-05-10T02:23:47;0.50;;;0.10;;
12956;SDS011;6543;48.836;10.092;2023-05-10T02:26:16;0.27;;;0.20;;
12956;SDS011;6543;48.836;10.092;2023-05-10T02:28:47;0.50;;;0.20;;
12956;SDS011;6543;48.836;10.092;2023-05-10T02:31:15;2.00;;;0.20;;
12956;SDS011;6543;48.836;10.092;2023-05-10T02:33:43;0.30;;;0.30;;
12956;SDS011;6543;48.836;10.092;2023-05-10T02:36:11;0.20;;;0.20;;
12956;SDS011;6543;48.836;10.092;2023-05-10T02:38:40;0.33;;;0.33;;
12956;SDS011;6543;48.836;10.092;2023-05-10T02:41:08;0.93;;;0.30;;
12956;SDS011;6543;48.836;10.092;2023-05-10T02:43:36;1.67;;;0.30;;
12956;SDS011;6543;48.836;10.092;2023-05-10T02:46:05;0.20;;;0.20;;
12956;SDS011;6543;48.836;10.092;2023-05-10T02:48:32;0.20;;;0.20;;
12956;SDS011;6543;48.836;10.092;2023-05-10T02:51:00;0.60;;;0.27;;
12956;SDS011;6543;48.836;10.092;2023-05-10T02:53:31;2.10;;;0.30;;
12956;SDS011;6543;48.836;10.092;2023-05-10T02:56:05;0.30;;;0.30;;
12956;SDS011;6543;48.836;10.092;2023-05-10T02:58:38;0.30;;;0.30;;
12956;SDS011;6543;48.836;10.092;2023-05-10T03:01:05;2.63;;;0.50;;
12956;SDS011;6543;48.836;10.092;2023-05-10T03:03:32;0.57;;;0.50;;
12956;SDS011;6543;48.836;10.092;2023-05-10T03:05:59;0.50;;;0.50;;
12956;SDS011;6543;48.836;10.092;2023-05-10T03:08:26;0.60;;;0.60;;
12956;SDS011;6543;48.836;10.092;2023-05-10T03:10:57;0.70;;;0.70;;
12956;SDS011;6543;48.836;10.092;2023-05-10T03:13:39;2.73;;;0.80;;
12956;SDS011;6543;48.836;10.092;2023-05-10T03:16:15;0.70;;;0.70;;
12956;SDS011;6543;48.836;10.092;2023-05-10T03:18:50;1.00;;;0.90;;
12956;SDS011;6543;48.836;10.092;2023-05-10T03:21:22;1.10;;;1.10;;
12956;SDS011;6543;48.836;10.092;2023-05-10T03:23:56;3.57;;;1.07;;
12956;SDS011;6543;48.836;10.092;2023-05-10T03:26:27;1.00;;;1.00;;
12956;SDS011;6543;48.836;10.092;2023-05-10T03:28:55;1.23;;;1.23;;
12956;SDS011;6543;48.836;10.092;2023-05-10T03:31:24;1.20;;;1.20;;
12956;SDS011;6543;48.836;10.092;2023-05-10T03:33:51;1.30;;;1.30;;
12956;SDS011;6543;48.836;10.092;2023-05-10T03:36:18;1.70;;;1.60;;
12956;SDS011;6543;48.836;10.092;2023-05-10T03:38:45;1.40;;;1.30;;
12956;SDS011;6543;48.836;10.092;2023-05-10T03:41:12;1.60;;;1.50;;
12956;SDS011;6543;48.836;10.092;2023-05-10T03:43:41;1.63;;;1.40;;
12956;SDS011;6543;48.836;10.092;2023-05-10T03:46:08;1.57;;;1.50;;
12956;SDS011;6543;48.836;10.092;2023-05-10T03:48:35;2.27;;;1.53;;
12956;SDS011;6543;48.836;10.092;2023-05-10T03:51:02;5.57;;;1.70;;
12956;SDS011;6543;48.836;10.092;2023-05-10T03:53:29;2.00;;;1.90;;
12956;SDS011;6543;48.836;10.092;2023-05-10T03:55:56;1.57;;;1.47;;
12956;SDS011;6543;48.836;10.092;2023-05-10T03:58:23;2.10;;;1.90;;
12956;SDS011;6543;48.836;10.092;2023-05-10T04:00:51;1.67;;;1.57;;
12956;SDS011;6543;48.836;10.092;2023-05-10T04:03:18;4.07;;;1.67;;
12956;SDS011;6543;48.836;10.092;2023-05-10T04:05:45;1.57;;;1.47;;
12956;SDS011;6543;48.836;10.092;2023-05-10T04:08:12;1.70;;;1.60;;
12956;SDS011;6543;48.836;10.092;2023-05-10T04:10:41;4.47;;;1.77;;
12956;SDS011;6543;48.836;10.092;2023-05-10T04:13:08;1.77;;;1.50;;
12956;SDS011;6543;48.836;10.092;2023-05-10T04:15:36;2.50;;;1.63;;
12956;SDS011;6543;48.836;10.092;2023-05-10T04:18:04;1.77;;;1.67;;
12956;SDS011;6543;48.836;10.092;2023-05-10T04:20:32;2.90;;;1.97;;
12956;SDS011;6543;48.836;10.092;2023-05-10T04:22:59;2.17;;;1.63;;
12956;SDS011;6543;48.836;10.092;2023-05-10T04:25:26;1.73;;;1.63;;
12956;SDS011;6543;48.836;10.092;2023-05-10T04:27:53;3.38;;;1.80;;
12956;SDS011;6543;48.836;10.092;2023-05-10T04:30:20;1.70;;;1.60;;
12956;SDS011;6543;48.836;10.092;2023-05-10T04:32:47;2.27;;;2.07;;
12956;SDS011;6543;48.836;10.092;2023-05-10T04:35:17;2.17;;;1.90;;
12956;SDS011;6543;48.836;10.092;2023-05-10T04:37:44;5.07;;;1.83;;
12956;SDS011;6543;48.836;10.092;2023-05-10T04:40:11;1.90;;;1.80;;
12956;SDS011;6543;48.836;10.092;2023-05-10T04:42:39;3.43;;;2.03;;
12956;SDS011;6543;48.836;10.092;2023-05-10T04:45:07;1.60;;;1.50;;
12956;SDS011;6543;48.836;10.092;2023-05-10T04:47:36;1.77;;;1.67;;
12956;SDS011;6543;48.836;10.092;2023-05-10T04:50:03;1.70;;;1.60;;
12956;SDS011;6543;48.836;10.092;2023-05-10T04:52:32;1.83;;;1.73;;
12956;SDS011;6543;48.836;10.092;2023-05-10T04:55:01;2.53;;;1.73;;
12956;SDS011;6543;48.836;10.092;2023-05-10T04:57:28;1.90;;;1.70;;
12956;SDS011;6543;48.836;10.092;2023-05-10T04:59:55;1.97;;;1.87;;
12956;SDS011;6543;48.836;10.092;2023-05-10T05:02:22;2.83;;;2.00;;
12956;SDS011;6543;48.836;10.092;2023-05-10T05:04:52;1.93;;;1.83;;
12956;SDS011;6543;48.836;10.092;2023-05-10T05:07:19;2.33;;;1.97;;
12956;SDS011;6543;48.836;10.092;2023-05-10T05:09:47;3.33;;;1.90;;
12956;SDS011;6543;48.836;10.092;2023-05-10T05:12:15;2.60;;;2.00;;
12956;SDS011;6543;48.836;10.092;2023-05-10T05:14:56;3.17;;;2.03;;
12956;SDS011;6543;48.836;10.092;2023-05-10T05:17:23;2.00;;;1.90;;
12956;SDS011;6543;48.836;10.092;2023-05-10T05:19:51;3.03;;;1.77;;
12956;SDS011;6543;48.836;10.092;2023-05-10T05:22:18;3.53;;;2.00;;
12956;SDS011;6543;48.836;10.092;2023-05-10T05:24:53;2.00;;;1.90;;
12956;SDS011;6543;48.836;10.092;2023-05-10T05:27:20;4.10;;;2.13;;
12956;SDS011;6543;48.836;10.092;2023-05-10T05:29:49;2.10;;;2.00;;
12956;SDS011;6543;48.836;10.092;2023-05-10T05:32:16;3.00;;;1.60;;
12956;SDS011;6543;48.836;10.092;2023-05-10T05:34:43;4.33;;;1.70;;
12956;SDS011;6543;48.836;10.092;2023-05-10T05:37:12;1.67;;;1.57;;
12956;SDS011;6543;48.836;10.092;2023-05-10T05:39:39;3.63;;;1.83;;
12956;SDS011;6543;48.836;10.092;2023-05-10T05:42:07;5.23;;;1.70;;
12956;SDS011;6543;48.836;10.092;2023-05-10T05:44:34;2.43;;;2.23;;
12956;SDS011;6543;48.836;10.092;2023-05-10T05:47:01;1.90;;;1.63;;
12956;SDS011;6543;48.836;10.092;2023-05-10T05:49:28;1.47;;;1.37;;
12956;SDS011;6543;48.836;10.092;2023-05-10T05:51:58;1.33;;;1.23;;
12956;SDS011;6543;48.836;10.092;2023-05-10T05:54:25;3.70;;;1.30;;
12956;SDS011;6543;48.836;10.092;2023-05-10T05:56:53;3.03;;;1.20;;
12956;SDS011;6543;48.836;10.092;2023-05-10T05:59:23;0.90;;;0.90;;
12956;SDS011;6543;48.836;10.092;2023-05-10T06:01:50;2.60;;;1.00;;
12956;SDS011;6543;48.836;10.092;2023-05-10T06:04:17;0.97;;;0.97;;
12956;SDS011;6543;48.836;10.092;2023-05-10T06:06:45;3.13;;;1.10;;
12956;SDS011;6543;48.836;10.092;2023-05-10T06:09:12;5.40;;;1.00;;
12956;SDS011;6543;48.836;10.092;2023-05-10T06:11:39;1.90;;;0.80;;
12956;SDS011;6543;48.836;10.092;2023-05-10T06:14:05;0.97;;;0.93;;
12956;SDS011;6543;48.836;10.092;2023-05-10T06:16:34;1.30;;;1.20;;
12956;SDS011;6543;48.836;10.092;2023-05-10T06:19:01;0.93;;;0.93;;
12956;SDS011;6543;48.836;10.092;2023-05-10T06:21:28;1.70;;;1.20;;
12956;SDS011;6543;48.836;10.092;2023-05-10T06:23:55;0.97;;;0.97;;
12956;SDS011;6543;48.836;10.092;2023-05-10T06:26:21;1.93;;;1.10;;
12956;SDS011;6543;48.836;10.092;2023-05-10T06:28:48;1.77;;;1.07;;
12956;SDS011;6543;48.836;10.092;2023-05-10T06:31:15;1.43;;;1.10;;
12956;SDS011;6543;48.836;10.092;2023-05-10T06:33:44;1.60;;;1.50;;
12956;SDS011;6543;48.836;10.092;2023-05-10T06:36:10;1.40;;;1.27;;
12956;SDS011;6543;48.836;10.092;2023-05-10T06:38:38;3.73;;;1.20;;
12956;SDS011;6543;48.836;10.092;2023-05-10T06:41:05;1.17;;;0.87;;
12956;SDS011;6543;48.836;10.092;2023-05-10T06:43:33;1.23;;;0.90;;
12956;SDS011;6543;48.836;10.092;2023-05-10T06:46:00;1.60;;;0.90;;
12956;SDS011;6543;48.836;10.092;2023-05-10T06:48:26;1.33;;;1.23;;
12956;SDS011;6543;48.836;10.092;2023-05-10T06:50:55;1.83;;;0.93;;
12956;SDS011;6543;48.836;10.092;2023-05-10T06:53:22;1.70;;;1.60;;
12956;SDS011;6543;48.836;10.092;2023-05-10T06:55:48;1.70;;;1.30;;
12956;SDS011;6543;48.836;10.092;2023-05-10T06:58:15;1.90;;;1.50;;
12956;SDS011;6543;48.836;10.092;2023-05-10T07:00:42;1.30;;;1.03;;
12956;SDS011;6543;48.836;10.092;2023-05-10T07:03:10;9.23;;;1.53;;
12956;SDS011;6543;48.836;10.092;2023-05-10T07:05:37;0.77;;;0.77;;
12956;SDS011;6543;48.836;10.092;2023-05-10T07:08:09;1.17;;;1.07;;
12956;SDS011;6543;48.836;10.092;2023-05-10T07:10:36;3.33;;;1.20;;
12956;SDS011;6543;48.836;10.092;2023-05-10T07:13:03;2.50;;;1.10;;
12956;SDS011;6543;48.836;10.092;2023-05-10T07:15:29;1.07;;;0.90;;
12956;SDS011;6543;48.836;10.092;2023-05-10T07:17:56;2.40;;;1.33;;
12956;SDS011;6543;48.836;10.092;2023-05-10T07:20:23;1.80;;;1.20;;
12956;SDS011;6543;48.836;10.092;2023-05-10T07:22:50;1.73;;;1.10;;
12956;SDS011;6543;48.836;10.092;2023-05-10T07:25:18;1.23;;;0.87;;
12956;SDS011;6543;48.836;10.092;2023-05-10T07:27:45;6.57;;;1.80;;
12956;SDS011;6543;48.836;10.092;2023-05-10T07:30:13;1.47;;;1.37;;
12956;SDS011;6543;48.836;10.092;2023-05-10T07:32:40;3.77;;;1.10;;
12956;SDS011;6543;48.836;10.092;2023-05-10T07:35:08;1.67;;;1.23;;
12956;SDS011;6543;48.836;10.092;2023-05-10T07:37:35;1.57;;;1.20;;
12956;SDS011;6543;48.836;10.092;2023-05-10T07:40:02;1.93;;;1.10;;
12956;SDS011;6543;48.836;10.092;2023-05-10T07:42:30;1.23;;;1.13;;
12956;SDS011;6543;48.836;10.092;2023-05-10T07:44:57;1.37;;;1.27;;
12956;SDS011;6543;48.836;10.092;2023-05-10T07:47:25;4.17;;;1.70;;
12956;SDS011;6543;48.836;10.092;2023-05-10T07:49:52;2.83;;;1.80;;
12956;SDS011;6543;48.836;10.092;2023-05-10T07:52:19;2.40;;;1.40;;
12956;SDS011;6543;48.836;10.092;2023-05-10T07:54:46;1.40;;;1.07;;
12956;SDS011;6543;48.836;10.092;2023-05-10T07:57:12;5.50;;;1.70;;
12956;SDS011;6543;48.836;10.092;2023-05-10T07:59:43;1.30;;;1.17;;
12956;SDS011;6543;48.836;10.092;2023-05-10T08:02:10;2.33;;;1.43;;
12956;SDS011;6543;48.836;10.092;2023-05-10T08:04:37;3.30;;;1.40;;
12956;SDS011;6543;48.836;10.092;2023-05-10T08:07:04;2.10;;;1.40;;
12956;SDS011;6543;48.836;10.092;2023-05-10T08:09:31;1.80;;;1.30;;
12956;SDS011;6543;48.836;10.092;2023-05-10T08:11:58;5.70;;;1.27;;
12956;SDS011;6543;48.836;10.092;2023-05-10T08:14:27;0.90;;;0.90;;
12956;SDS011;6543;48.836;10.092;2023-05-10T08:16:56;1.47;;;1.07;;
12956;SDS011;6543;48.836;10.092;2023-05-10T08:19:24;0.80;;;0.70;;
12956;SDS011;6543;48.836;10.092;2023-05-10T08:21:51;1.87;;;1.17;;
12956;SDS011;6543;48.836;10.092;2023-05-10T08:24:18;0.90;;;0.90;;
12956;SDS011;6543;48.836;10.092;2023-05-10T08:26:45;1.97;;;1.20;;
12956;SDS011;6543;48.836;10.092;2023-05-10T08:29:12;1.07;;;0.83;;
12956;SDS011;6543;48.836;10.092;2023-05-10T08:31:39;1.70;;;1.10;;
12956;SDS011;6543;48.836;10.092;2023-05-10T08:34:08;1.37;;;0.90;;
12956;SDS011;6543;48.836;10.092;2023-05-10T08:36:34;1.03;;;0.93;;
12956;SDS011;6543;48.836;10.092;2023-05-10T08:39:02;2.90;;;1.20;;
12956;SDS011;6543;48.836;10.092;2023-05-10T08:41:29;2.73;;;0.93;;
12956;SDS011;6543;48.836;10.092;2023-05-10T08:43:59;3.30;;;1.63;;
12956;SDS011;6543;48.836;10.092;2023-05-10T08:46:30;1.23;;;1.13;;
12956;SDS011;6543;48.836;10.092;2023-05-10T08:49:00;2.23;;;2.00;;
12956;SDS011;6543;48.836;10.092;2023-05-10T08:51:31;1.50;;;1.40;;
12956;SDS011;6543;48.836;10.092;2023-05-10T08:54:02;3.93;;;0.87;;
12956;SDS011;6543;48.836;10.092;2023-05-10T08:56:30;4.27;;;1.97;;
12956;SDS011;6543;48.836;10.092;2023-05-10T08:58:59;2.20;;;1.30;;
12956;SDS011;6543;48.836;10.092;2023-05-10T09:01:28;2.03;;;1.70;;
12956;SDS011;6543;48.836;10.092;2023-05-10T09:03:57;1.07;;;1.00;;
12956;SDS011;6543;48.836;10.092;2023-05-10T09:06:25;1.47;;;1.37;;
12956;SDS011;6543;48.836;10.092;2023-05-10T09:08:53;2.33;;;1.60;;
12956;SDS011;6543;48.836;10.092;2023-05-10T09:11:20;2.40;;;1.50;;
12956;SDS011;6543;48.836;10.092;2023-05-10T09:13:48;1.40;;;1.17;;
12956;SDS011;6543;48.836;10.092;2023-05-10T09:16:16;2.43;;;1.30;;
12956;SDS011;6543;48.836;10.092;2023-05-10T09:18:43;1.33;;;1.17;;
12956;SDS011;6543;48.836;10.092;2023-05-10T09:21:10;2.00;;;1.50;;
12956;SDS011;6543;48.836;10.092;2023-05-10T09:23:37;2.60;;;1.60;;
12956;SDS011;6543;48.836;10.092;2023-05-10T09:26:06;3.97;;;1.70;;
12956;SDS011;6543;48.836;10.092;2023-05-10T09:28:35;2.20;;;1.50;;
12956;SDS011;6543;48.836;10.092;2023-05-10T09:31:17;1.93;;;1.23;;
12956;SDS011;6543;48.836;10.092;2023-05-10T09:33:44;1.87;;;1.50;;
12956;SDS011;6543;48.836;10.092;2023-05-10T09:36:12;1.23;;;1.07;;
12956;SDS011;6543;48.836;10.092;2023-05-10T09:38:46;1.87;;;1.70;;
12956;SDS011;6543;48.836;10.092;2023-05-10T09:41:19;1.83;;;1.63;;
12956;SDS011;6543;48.836;10.092;2023-05-10T09:43:48;3.80;;;2.03;;
12956;SDS011;6543;48.836;10.092;2023-05-10T09:46:16;1.10;;;0.93;;
12956;SDS011;6543;48.836;10.092;2023-05-10T09:48:44;2.27;;;1.20;;
12956;SDS011;6543;48.836;10.092;2023-05-10T09:51:18;1.30;;;1.20;;
12956;SDS011;6543;48.836;10.092;2023-05-10T09:53:46;1.80;;;0.93;;
12956;SDS011;6543;48.836;10.092;2023-05-10T09:56:19;1.27;;;1.17;;
12956;SDS011;6543;48.836;10.092;2023-05-10T09:59:02;4.40;;;1.40;;
12956;SDS011;6543;48.836;10.092;2023-05-10T10:01:30;2.40;;;1.27;;
12956;SDS011;6543;48.836;10.092;2023-05-10T10:03:58;1.50;;;1.10;;
12956;SDS011;6543;48.836;10.092;2023-05-10T10:06:25;2.40;;;0.98;;
12956;SDS011;6543;48.836;10.092;2023-05-10T10:08:53;3.67;;;2.03;;
12956;SDS011;6543;48.836;10.092;2023-05-10T10:11:22;1.63;;;0.97;;
12956;SDS011;6543;48.836;10.092;2023-05-10T10:13:52;1.67;;;0.80;;
12956;SDS011;6543;48.836;10.092;2023-05-10T10:16:20;1.90;;;1.07;;
12956;SDS011;6543;48.836;10.092;2023-05-10T10:18:47;1.90;;;1.23;;
12956;SDS011;6543;48.836;10.092;2023-05-10T10:21:14;0.97;;;0.93;;
12956;SDS011;6543;48.836;10.092;2023-05-10T10:23:43;4.50;;;1.13;;
12956;SDS011;6543;48.836;10.092;2023-05-10T10:26:10;0.70;;;0.70;;
12956;SDS011;6543;48.836;10.092;2023-05-10T10:28:40;1.23;;;0.80;;
12956;SDS011;6543;48.836;10.092;2023-05-10T10:31:15;2.57;;;0.90;;
12956;SDS011;6543;48.836;10.092;2023-05-10T10:33:58;2.17;;;1.50;;
12956;SDS011;6543;48.836;10.092;2023-05-10T10:36:28;1.27;;;0.80;;
12956;SDS011;6543;48.836;10.092;2023-05-10T10:38:59;2.67;;;0.90;;
12956;SDS011;6543;48.836;10.092;2023-05-10T10:41:31;1.53;;;1.10;;
12956;SDS011;6543;48.836;10.092;2023-05-10T10:47:00;0.97;;;0.50;;
12956;SDS011;6543;48.836;10.092;2023-05-10T10:49:30;0.87;;;0.60;;
12956;SDS011;6543;48.836;10.092;2023-05-10T10:54:59;2.43;;;0.50;;
12956;SDS011;6543;48.836;10.092;2023-05-10T10:57:28;2.33;;;0.40;;
12956;SDS011;6543;48.836;10.092;2023-05-10T11:02:49;0.60;;;0.60;;
12956;SDS011;6543;48.836;10.092;2023-05-10T11:05:34;0.93;;;0.90;;
12956;SDS011;6543;48.836;10.092;2023-05-10T11:08:06;0.80;;;0.50;;
12956;SDS011;6543;48.836;10.092;2023-05-10T11:10:36;0.67;;;0.50;;
12956;SDS011;6543;48.836;10.092;2023-05-10T11:13:03;0.90;;;0.60;;
12956;SDS011;6543;48.836;10.092;2023-05-10T11:15:33;0.47;;;0.40;;
12956;SDS011;6543;48.836;10.092;2023-05-10T11:18:15;3.20;;;0.60;;
12956;SDS011;6543;48.836;10.092;2023-05-10T11:20:44;0.67;;;0.40;;
12956;SDS011;6543;48.836;10.092;2023-05-10T11:23:16;0.87;;;0.40;;
12956;SDS011;6543;48.836;10.092;2023-05-10T11:25:44;1.60;;;0.30;;
12956;SDS011;6543;48.836;10.092;2023-05-10T11:28:12;0.47;;;0.47;;
12956;SDS011;6543;48.836;10.092;2023-05-10T11:30:41;0.40;;;0.40;;
12956;SDS011;6543;48.836;10.092;2023-05-10T11:33:11;0.47;;;0.37;;
12956;SDS011;6543;48.836;10.092;2023-05-10T11:35:41;0.70;;;0.40;;
12956;SDS011;6543;48.836;10.092;2023-05-10T11:38:08;0.20;;;0.20;;
12956;SDS011;6543;48.836;10.092;2023-05-10T11:40:37;0.73;;;0.50;;
12956;SDS011;6543;48.836;10.092;2023-05-10T11:43:05;2.37;;;0.40;;
12956;SDS011;6543;48.836;10.092;2023-05-10T11:45:32;5.40;;;0.60;;
12956;SDS011;6543;48.836;10.092;2023-05-10T11:48:01;2.43;;;0.33;;
12956;SDS011;6543;48.836;10.092;2023-05-10T11:50:29;0.80;;;0.47;;
12956;SDS011;6543;48.836;10.092;2023-05-10T11:52:56;2.63;;;0.77;;
12956;SDS011;6543;48.836;10.092;2023-05-10T11:55:24;0.60;;;0.43;;
12956;SDS011;6543;48.836;10.092;2023-05-10T11:57:54;1.77;;;0.40;;
12956;SDS011;6543;48.836;10.092;2023-05-10T12:00:21;1.50;;;0.67;;
12956;SDS011;6543;48.836;10.092;2023-05-10T12:02:48;0.60;;;0.60;;
12956;SDS011;6543;48.836;10.092;2023-05-10T12:05:16;0.97;;;0.63;;
12956;SDS011;6543;48.836;10.092;2023-05-10T12:07:43;1.70;;;0.57;;
12956;SDS011;6543;48.836;10.092;2023-05-10T12:10:11;1.37;;;0.80;;
12956;SDS011;6543;48.836;10.092;2023-05-10T12:12:40;0.55;;;0.50;;
12956;SDS011;6543;48.836;10.092;2023-05-10T12:15:11;0.77;;;0.60;;
12956;SDS011;6543;48.836;10.092;2023-05-10T12:17:43;1.57;;;0.60;;
12956;SDS011;6543;48.836;10.092;2023-05-10T12:20:14;0.60;;;0.60;;
12956;SDS011;6543;48.836;10.092;2023-05-10T12:22:45;0.60;;;0.60;;
12956;SDS011;6543;48.836;10.092;2023-05-10T12:25:12;2.23;;;0.43;;
12956;SDS011;6543;48.836;10.092;2023-05-10T12:27:39;5.30;;;0.67;;
12956;SDS011;6543;48.836;10.092;2023-05-10T12:30:07;0.70;;;0.50;;
12956;SDS011;6543;48.836;10.092;2023-05-10T12:32:38;0.53;;;0.40;;
12956;SDS011;6543;48.836;10.092;2023-05-10T12:35:06;1.50;;;0.37;;
12956;SDS011;6543;48.836;10.092;2023-05-10T12:37:34;2.73;;;0.70;;
12956;SDS011;6543;48.836;10.092;2023-05-10T12:40:05;0.97;;;0.57;;
12956;SDS011;6543;48.836;10.092;2023-05-10T12:42:34;2.37;;;0.70;;
12956;SDS011;6543;48.836;10.092;2023-05-10T12:45:01;2.87;;;0.30;;
12956;SDS011;6543;48.836;10.092;2023-05-10T12:47:29;0.63;;;0.33;;
12956;SDS011;6543;48.836;10.092;2023-05-10T12:49:56;2.80;;;0.50;;
12956;SDS011;6543;48.836;10.092;2023-05-10T12:52:23;1.07;;;0.63;;
12956;SDS011;6543;48.836;10.092;2023-05-10T12:54:52;0.30;;;0.30;;
12956;SDS011;6543;48.836;10.092;2023-05-10T12:57:19;0.77;;;0.60;;
12956;SDS011;6543;48.836;10.092;2023-05-10T12:59:46;1.50;;;0.93;;
12956;SDS011;6543;48.836;10.092;2023-05-10T13:02:13;2.17;;;1.87;;
12956;SDS011;6543;48.836;10.092;2023-05-10T13:04:42;1.57;;;0.67;;
12956;SDS011;6543;48.836;10.092;2023-05-10T13:07:10;1.83;;;0.97;;
12956;SDS011;6543;48.836;10.092;2023-05-10T13:09:36;1.20;;;0.60;;
12956;SDS011;6543;48.836;10.092;2023-05-10T13:12:05;0.50;;;0.40;;
12956;SDS011;6543;48.836;10.092;2023-05-10T13:14:32;0.60;;;0.40;;
12956;SDS011;6543;48.836;10.092;2023-05-10T13:16:59;0.87;;;0.37;;
12956;SDS011;6543;48.836;10.092;2023-05-10T13:19:25;1.23;;;0.60;;
12956;SDS011;6543;48.836;10.092;2023-05-10T13:21:52;1.47;;;0.40;;
12956;SDS011;6543;48.836;10.092;2023-05-10T13:24:19;0.73;;;0.60;;
12956;SDS011;6543;48.836;10.092;2023-05-10T13:26:46;2.10;;;0.70;;
12956;SDS011;6543;48.836;10.092;2023-05-10T13:29:15;0.90;;;0.50;;
12956;SDS011;6543;48.836;10.092;2023-05-10T13:31:43;1.20;;;0.43;;
12956;SDS011;6543;48.836;10.092;2023-05-10T13:34:10;0.43;;;0.43;;
12956;SDS011;6543;48.836;10.092;2023-05-10T13:36:37;1.03;;;0.80;;
12956;SDS011;6543;48.836;10.092;2023-05-10T13:39:04;2.20;;;0.73;;
12956;SDS011;6543;48.836;10.092;2023-05-10T13:41:31;2.57;;;1.23;;
12956;SDS011;6543;48.836;10.092;2023-05-10T13:43:58;1.30;;;0.70;;
12956;SDS011;6543;48.836;10.092;2023-05-10T13:46:26;2.50;;;0.47;;
12956;SDS011;6543;48.836;10.092;2023-05-10T13:48:53;0.60;;;0.60;;
12956;SDS011;6543;48.836;10.092;2023-05-10T13:51:20;1.53;;;1.00;;
12956;SDS011;6543;48.836;10.092;2023-05-10T13:53:47;3.43;;;0.80;;
12956;SDS011;6543;48.836;10.092;2023-05-10T13:56:14;2.10;;;1.00;;
12956;SDS011;6543;48.836;10.092;2023-05-10T13:58:41;3.80;;;0.60;;
12956;SDS011;6543;48.836;10.092;2023-05-10T14:01:08;1.77;;;0.70;;
12956;SDS011;6543;48.836;10.092;2023-05-10T14:03:38;3.83;;;0.63;;
12956;SDS011;6543;48.836;10.092;2023-05-10T14:06:06;0.80;;;0.50;;
12956;SDS011;6543;48.836;10.092;2023-05-10T14:08:34;1.00;;;0.70;;
12956;SDS011;6543;48.836;10.092;2023-05-10T14:11:01;3.17;;;0.80;;
12956;SDS011;6543;48.836;10.092;2023-05-10T14:13:30;0.97;;;0.40;;
12956;SDS011;6543;48.836;10.092;2023-05-10T14:15:57;1.47;;;0.53;;
12956;SDS011;6543;48.836;10.092;2023-05-10T14:18:25;1.00;;;0.80;;
12956;SDS011;6543;48.836;10.092;2023-05-10T14:20:54;2.70;;;0.50;;
12956;SDS011;6543;48.836;10.092;2023-05-10T14:23:21;1.03;;;0.57;;
12956;SDS011;6543;48.836;10.092;2023-05-10T14:25:49;0.97;;;0.60;;
12956;SDS011;6543;48.836;10.092;2023-05-10T14:28:17;4.23;;;0.77;;
12956;SDS011;6543;48.836;10.092;2023-05-10T14:30:45;1.03;;;0.57;;
12956;SDS011;6543;48.836;10.092;2023-05-10T14:33:12;0.97;;;0.57;;
12956;SDS011;6543;48.836;10.092;2023-05-10T14:35:40;2.77;;;0.53;;
12956;SDS011;6543;48.836;10.092;2023-05-10T14:38:08;1.23;;;0.70;;
12956;SDS011;6543;48.836;10.092;2023-05-10T14:40:35;2.40;;;0.60;;
12956;SDS011;6543;48.836;10.092;2023-05-10T14:43:02;1.50;;;0.80;;
12956;SDS011;6543;48.836;10.092;2023-05-10T14:45:29;0.93;;;0.70;;
12956;SDS011;6543;48.836;10.092;2023-05-10T14:47:56;6.03;;;0.70;;
12956;SDS011;6543;48.836;10.092;2023-05-10T14:50:24;0.73;;;0.73;;
12956;SDS011;6543;48.836;10.092;2023-05-10T14:52:51;3.37;;;0.97;;
12956;SDS011;6543;48.836;10.092;2023-05-10T14:55:19;1.47;;;0.80;;
12956;SDS011;6543;48.836;10.092;2023-05-10T14:57:46;2.37;;;1.10;;
12956;SDS011;6543;48.836;10.092;2023-05-10T15:00:15;2.87;;;1.23;;
12956;SDS011;6543;48.836;10.092;2023-05-10T15:02:44;1.97;;;1.10;;
12956;SDS011;6543;48.836;10.092;2023-05-10T15:05:13;1.13;;;0.73;;
12956;SDS011;6543;48.836;10.092;2023-05-10T15:07:40;2.67;;;1.50;;
12956;SDS011;6543;48.836;10.092;2023-05-10T15:10:08;3.83;;;1.20;;